createdAt,value
2019-01-24T00:02:01.298Z,42.65
2019-01-24T00:04:31.178Z,41.88
2019-01-24T00:07:00.970Z,42.35
2019-01-24T00:09:30.815Z,41.73
2019-01-24T00:12:00.690Z,39.70
2019-01-24T00:14:30.511Z,42.10
2019-01-24T00:17:03.519Z,37.60
2019-01-24T00:19:33.353Z,39.33
2019-01-24T00:22:03.462Z,37.28
2019-01-24T00:24:34.939Z,36.00
2019-01-24T00:27:04.911Z,37.93
2019-01-24T00:29:34.753Z,38.53
2019-01-24T00:32:04.814Z,39.08
2019-01-24T00:34:34.670Z,38.40
2019-01-24T00:37:04.727Z,37.83
2019-01-24T00:39:34.573Z,37.05
2019-01-24T00:42:04.414Z,36.68
2019-01-24T00:44:34.253Z,36.88
2019-01-24T00:47:04.423Z,34.78
2019-01-24T00:49:34.219Z,31.57
2019-01-24T00:52:04.395Z,33.35
2019-01-24T00:54:34.154Z,34.40
2019-01-24T00:57:03.900Z,33.90
2019-01-24T00:59:33.871Z,33.05
2019-01-24T01:02:03.738Z,34.75
2019-01-24T01:04:34.811Z,35.15
2019-01-24T01:07:05.232Z,35.33
2019-01-24T01:09:35.019Z,37.58
2019-01-24T01:12:06.381Z,37.05
2019-01-24T01:14:36.183Z,37.78
2019-01-24T01:17:06.085Z,36.85
2019-01-24T01:19:35.896Z,37.05
2019-01-24T01:22:05.697Z,39.15
2019-01-24T01:24:35.445Z,38.48
2019-01-24T01:27:05.451Z,38.30
2019-01-24T01:29:35.322Z,38.83
2019-01-24T01:32:05.359Z,40.65
2019-01-24T01:34:36.379Z,38.83
2019-01-24T01:37:06.522Z,34.85
2019-01-24T01:39:36.433Z,36.85
2019-01-24T01:42:06.298Z,35.73
2019-01-24T01:44:36.115Z,36.75
2019-01-24T01:47:05.969Z,32.50
2019-01-24T01:49:35.799Z,35.03
2019-01-24T01:52:05.586Z,33.78
2019-01-24T01:54:35.409Z,34.23
2019-01-24T01:57:05.391Z,34.50
2019-01-24T01:59:35.161Z,37.30
2019-01-24T02:02:05.038Z,32.65
2019-01-24T02:04:34.931Z,33.95
2019-01-24T02:07:04.902Z,33.75
2019-01-24T02:09:34.738Z,33.00
2019-01-24T02:12:04.595Z,33.20
2019-01-24T02:14:34.511Z,35.15
2019-01-24T02:17:04.503Z,33.73
2019-01-24T02:19:34.245Z,35.95
2019-01-24T02:22:04.488Z,37.23
2019-01-24T02:24:34.378Z,36.53
2019-01-24T02:27:04.714Z,37.88
2019-01-24T02:29:34.555Z,34.65
2019-01-24T02:32:04.555Z,35.05
2019-01-24T02:34:34.385Z,33.95
2019-01-24T02:37:04.353Z,35.00
2019-01-24T02:39:34.241Z,33.28
2019-01-24T02:42:04.157Z,32.70
2019-01-24T02:44:33.932Z,32.73
2019-01-24T02:47:03.690Z,33.30
2019-01-24T02:49:33.493Z,33.65
2019-01-24T02:52:03.256Z,33.65
2019-01-24T02:54:33.077Z,33.95
2019-01-24T02:57:02.923Z,31.70
2019-01-24T02:59:32.756Z,34.08
2019-01-24T03:02:02.587Z,34.08
2019-01-24T03:04:32.356Z,34.58
2019-01-24T03:07:02.156Z,33.85
2019-01-24T03:09:31.910Z,31.77
2019-01-24T03:12:01.777Z,32.80
2019-01-24T03:14:31.638Z,34.70
2019-01-24T03:17:01.471Z,33.98
2019-01-24T03:19:31.447Z,32.05
2019-01-24T03:22:01.292Z,34.75
2019-01-24T03:24:31.195Z,33.98
2019-01-24T03:27:01.117Z,34.80
2019-01-24T03:29:30.960Z,34.15
2019-01-24T03:32:00.880Z,33.55
2019-01-24T03:34:30.790Z,35.65
2019-01-24T03:37:01.430Z,33.67
2019-01-24T03:39:31.459Z,34.95
2019-01-24T03:42:01.328Z,32.88
2019-01-24T03:44:31.067Z,30.15
2019-01-24T03:47:00.842Z,32.20
2019-01-24T03:49:33.123Z,32.38
2019-01-24T03:52:02.904Z,31.42
2019-01-24T03:54:32.760Z,30.27
2019-01-24T03:57:02.667Z,30.40
2019-01-24T03:59:32.581Z,30.30
2019-01-24T04:02:02.491Z,29.25
2019-01-24T04:04:32.376Z,31.42
2019-01-24T04:07:02.147Z,28.35
2019-01-24T04:09:31.980Z,28.27
2019-01-24T04:12:01.814Z,29.70
2019-01-24T04:14:31.570Z,32.03
2019-01-24T04:17:02.956Z,30.52
2019-01-24T04:19:32.913Z,28.87
2019-01-24T04:22:02.771Z,28.83
2019-01-24T04:24:32.628Z,27.95
2019-01-24T04:27:02.391Z,29.18
2019-01-24T04:29:32.341Z,28.57
2019-01-24T04:32:02.198Z,28.65
2019-01-24T04:34:32.039Z,31.20
2019-01-24T04:37:01.803Z,26.45
2019-01-24T04:39:31.698Z,28.75
2019-01-24T04:42:01.537Z,29.70
2019-01-24T04:44:31.431Z,28.25
2019-01-24T04:47:01.305Z,34.38
2019-01-24T04:49:31.118Z,29.00
2019-01-24T04:52:01.045Z,26.90
2019-01-24T04:54:30.901Z,27.52
2019-01-24T04:57:00.776Z,28.07
2019-01-24T04:59:30.630Z,27.80
2019-01-24T05:02:01.715Z,29.40
2019-01-24T05:04:31.613Z,28.40
2019-01-24T05:07:01.421Z,28.45
2019-01-24T05:09:31.198Z,29.30
2019-01-24T05:12:01.039Z,28.92
2019-01-24T05:14:32.131Z,28.30
2019-01-24T05:17:02.044Z,27.45
2019-01-24T05:19:31.933Z,28.77
2019-01-24T05:22:03.462Z,29.57
2019-01-24T05:24:33.308Z,25.50
2019-01-24T05:27:04.261Z,26.40
2019-01-24T05:29:34.424Z,27.50
2019-01-24T05:32:04.343Z,26.45
2019-01-24T05:34:34.171Z,25.72
2019-01-24T05:37:04.028Z,27.85
2019-01-24T05:39:33.843Z,26.90
2019-01-24T05:42:03.766Z,25.80
2019-01-24T05:44:33.605Z,26.60
2019-01-24T05:47:03.518Z,26.97
2019-01-24T05:49:33.805Z,25.97
2019-01-24T05:52:03.609Z,26.07
2019-01-24T05:54:35.297Z,26.42
2019-01-24T05:57:06.444Z,25.88
2019-01-24T05:59:36.290Z,25.52
2019-01-24T06:02:06.065Z,25.05
2019-01-24T06:04:35.896Z,25.82
2019-01-24T06:07:05.806Z,25.85
2019-01-24T06:09:39.522Z,24.75
2019-01-24T06:12:09.483Z,26.25
2019-01-24T06:14:39.327Z,25.37
2019-01-24T06:17:09.227Z,24.45
2019-01-24T06:19:39.067Z,24.27
2019-01-24T06:22:08.816Z,25.05
2019-01-24T06:24:38.653Z,24.18
2019-01-24T06:27:08.519Z,27.25
2019-01-24T06:29:38.431Z,26.80
2019-01-24T06:32:08.280Z,26.82
2019-01-24T06:34:38.126Z,26.50
2019-01-24T06:37:08.019Z,27.10
2019-01-24T06:39:37.898Z,27.42
2019-01-24T06:42:09.386Z,27.55
2019-01-24T06:44:39.151Z,26.15
2019-01-24T06:47:08.980Z,26.42
2019-01-24T06:49:38.850Z,26.70
2019-01-24T06:52:09.407Z,26.05
2019-01-24T06:54:41.010Z,24.90
2019-01-24T06:57:10.791Z,24.80
2019-01-24T06:59:40.655Z,23.52
2019-01-24T07:02:10.504Z,23.45
2019-01-24T07:04:40.272Z,23.12
2019-01-24T07:07:17.290Z,25.25
2019-01-24T07:09:43.248Z,23.38
2019-01-24T07:12:13.143Z,21.10
2019-01-24T07:14:42.961Z,22.77
2019-01-24T07:17:14.036Z,20.92
2019-01-24T07:19:44.943Z,22.42
2019-01-24T07:22:14.807Z,25.50
2019-01-24T07:24:44.730Z,21.60
2019-01-24T07:27:30.343Z,22.80
2019-01-24T07:30:00.727Z,21.95
2019-01-24T07:32:31.121Z,26.80
2019-01-24T07:35:01.562Z,21.70
2019-01-24T07:37:31.506Z,22.58
2019-01-24T07:40:02.033Z,26.42
2019-01-24T07:42:32.752Z,22.17
2019-01-24T07:45:03.379Z,21.25
2019-01-24T07:47:33.524Z,23.75
2019-01-24T07:50:04.822Z,25.85
2019-01-24T07:52:35.254Z,24.60
2019-01-24T07:55:08.101Z,20.52
2019-01-24T07:57:38.471Z,23.00
2019-01-24T08:00:20.479Z,21.73
2019-01-24T08:02:50.987Z,24.23
2019-01-24T08:05:21.417Z,21.25
2019-01-24T08:07:51.954Z,21.65
2019-01-24T08:10:23.681Z,21.10
2019-01-24T08:12:54.397Z,21.77
2019-01-24T08:15:25.480Z,20.62
2019-01-24T08:17:56.035Z,20.27
2019-01-24T08:20:28.030Z,19.37
2019-01-24T08:22:58.443Z,22.02
2019-01-24T08:25:29.208Z,20.02
2019-01-24T08:27:59.853Z,19.57
2019-01-24T08:30:32.411Z,21.00
2019-01-24T08:33:03.226Z,19.90
2019-01-24T08:35:33.953Z,20.00
2019-01-24T08:38:04.741Z,21.10
2019-01-24T08:40:35.363Z,21.00
2019-01-24T08:43:07.086Z,20.52
2019-01-24T08:45:37.803Z,23.18
2019-01-24T08:48:08.236Z,21.10
2019-01-24T08:50:38.805Z,20.23
2019-01-24T08:53:09.393Z,22.07
2019-01-24T08:55:40.160Z,20.72
2019-01-24T08:58:10.939Z,21.62
2019-01-24T09:00:41.366Z,19.73
2019-01-24T09:03:11.958Z,20.82
2019-01-24T09:05:42.398Z,21.17
2019-01-24T09:08:12.644Z,21.62
2019-01-24T09:10:43.071Z,20.57
2019-01-24T09:13:13.242Z,19.32
2019-01-24T09:15:43.372Z,20.97
2019-01-24T09:18:13.838Z,21.05
2019-01-24T09:20:44.159Z,20.35
2019-01-24T09:23:14.575Z,20.35
2019-01-24T09:25:44.915Z,22.27
2019-01-24T09:28:15.230Z,21.17
2019-01-24T09:30:45.453Z,21.02
2019-01-24T09:33:15.768Z,21.15
2019-01-24T09:35:46.122Z,19.15
2019-01-24T09:38:16.140Z,20.27
2019-01-24T09:40:46.731Z,22.22
2019-01-24T09:43:17.091Z,21.50
2019-01-24T09:45:47.204Z,21.17
2019-01-24T09:48:17.648Z,20.62
2019-01-24T09:50:47.736Z,20.48
2019-01-24T09:53:18.096Z,21.95
2019-01-24T09:55:48.418Z,19.92
2019-01-24T09:58:18.920Z,21.35
2019-01-24T10:00:49.396Z,22.10
2019-01-24T10:03:20.038Z,23.32
2019-01-24T10:05:50.412Z,20.23
2019-01-24T10:08:22.087Z,19.90
2019-01-24T10:10:52.998Z,20.23
2019-01-24T10:13:23.698Z,20.35
2019-01-24T10:15:54.284Z,20.25
2019-01-24T10:18:24.474Z,19.73
2019-01-24T10:20:54.791Z,20.50
2019-01-24T10:23:25.292Z,21.48
2019-01-24T10:25:55.613Z,22.02
2019-01-24T10:28:25.838Z,21.68
2019-01-24T10:30:56.053Z,21.48
2019-01-24T10:33:26.413Z,23.70
2019-01-24T10:35:57.052Z,24.15
2019-01-24T10:38:26.898Z,24.02
2019-01-24T10:40:57.034Z,21.68
2019-01-24T10:43:27.191Z,24.50
2019-01-24T10:45:59.017Z,22.02
2019-01-24T10:48:29.188Z,22.52
2019-01-24T10:51:00.888Z,22.45
2019-01-24T10:53:31.560Z,22.85
2019-01-24T10:56:01.932Z,23.98
2019-01-24T10:58:32.363Z,24.75
2019-01-24T11:01:02.848Z,22.67
2019-01-24T11:03:32.969Z,24.00
2019-01-24T11:06:03.306Z,23.50
2019-01-24T11:08:34.170Z,22.10
2019-01-24T11:11:04.842Z,25.35
2019-01-24T11:13:35.249Z,25.45
2019-01-24T11:16:05.553Z,23.87
2019-01-24T11:18:36.009Z,22.58
2019-01-24T11:21:06.735Z,24.87
2019-01-24T11:23:37.030Z,24.75
2019-01-24T11:26:07.316Z,22.70
2019-01-24T11:28:37.461Z,23.35
2019-01-24T11:31:07.960Z,22.67
2019-01-24T11:33:39.093Z,23.40
2019-01-24T11:36:09.745Z,24.80
2019-01-24T11:38:40.276Z,24.37
2019-01-24T11:41:10.831Z,24.82
2019-01-24T11:43:41.037Z,26.12
2019-01-24T11:46:11.490Z,25.02
2019-01-24T11:48:41.623Z,25.05
2019-01-24T11:51:11.839Z,24.70
2019-01-24T11:53:42.034Z,32.40
2019-01-24T11:56:12.895Z,27.37
2019-01-24T11:58:43.631Z,26.42
2019-01-24T12:01:13.800Z,26.05
2019-01-24T12:03:44.253Z,24.25
2019-01-24T12:06:14.451Z,24.72
2019-01-24T12:08:44.656Z,24.20
2019-01-24T12:11:15.235Z,24.47
2019-01-24T12:13:45.971Z,26.25
2019-01-24T12:16:16.261Z,25.12
2019-01-24T12:18:46.506Z,25.62
2019-01-24T12:21:16.608Z,26.40
2019-01-24T12:23:47.030Z,26.17
2019-01-24T12:26:17.228Z,24.65
2019-01-24T12:28:47.975Z,26.37
2019-01-24T12:31:18.206Z,24.75
2019-01-24T12:33:48.461Z,25.27
2019-01-24T12:36:19.864Z,25.32
2019-01-24T12:38:50.298Z,26.90
2019-01-24T12:41:20.428Z,25.55
2019-01-24T12:43:51.191Z,25.62
2019-01-24T12:46:21.717Z,26.33
2019-01-24T12:48:51.817Z,24.55
2019-01-24T12:51:22.323Z,24.70
2019-01-24T12:53:52.923Z,26.12
2019-01-24T12:56:23.384Z,24.20
2019-01-24T12:58:53.960Z,24.35
2019-01-24T13:01:24.283Z,24.55
2019-01-24T13:03:54.854Z,24.32
2019-01-24T13:06:25.335Z,27.40
2019-01-24T13:08:55.675Z,26.27
2019-01-24T13:11:26.176Z,27.35
2019-01-24T13:13:56.616Z,25.12
2019-01-24T13:16:26.929Z,26.77
2019-01-24T13:18:58.576Z,24.70
2019-01-24T13:21:29.145Z,26.60
2019-01-24T13:23:59.419Z,25.15
2019-01-24T13:26:29.543Z,25.50
2019-01-24T13:28:59.852Z,24.43
2019-01-24T13:31:30.084Z,26.87
2019-01-24T13:34:00.926Z,26.00
2019-01-24T13:36:31.300Z,23.83
2019-01-24T13:39:01.941Z,24.32
2019-01-24T13:41:32.579Z,24.35
2019-01-24T13:44:02.942Z,24.95
2019-01-24T13:46:33.537Z,26.23
2019-01-24T13:49:03.959Z,25.48
2019-01-24T13:51:34.432Z,25.17
2019-01-24T13:54:04.509Z,24.70
2019-01-24T13:56:35.228Z,24.02
2019-01-24T13:59:05.577Z,23.70
2019-01-24T14:01:36.080Z,25.23
2019-01-24T14:04:09.522Z,22.60
2019-01-24T14:06:39.894Z,25.43
2019-01-24T14:09:10.519Z,25.88
2019-01-24T14:11:41.120Z,27.45
2019-01-24T14:14:11.305Z,26.45
2019-01-24T14:16:41.807Z,25.48
2019-01-24T14:19:12.313Z,27.10
2019-01-24T14:21:42.397Z,24.90
2019-01-24T14:24:12.771Z,27.02
2019-01-24T14:26:43.182Z,25.75
2019-01-24T14:29:13.747Z,26.75
2019-01-24T14:31:43.949Z,26.62
2019-01-24T14:34:14.289Z,26.00
2019-01-24T14:36:44.431Z,26.05
2019-01-24T14:39:16.223Z,25.10
2019-01-24T14:41:46.721Z,26.45
2019-01-24T14:44:17.055Z,28.05
2019-01-24T14:46:47.745Z,25.45
2019-01-24T14:49:17.838Z,26.02
2019-01-24T14:51:48.170Z,27.80
2019-01-24T14:54:18.293Z,30.08
2019-01-24T14:56:48.460Z,31.77
2019-01-24T14:59:19.225Z,25.43
2019-01-24T15:01:49.557Z,25.55
2019-01-24T15:04:19.964Z,26.77
2019-01-24T15:06:50.813Z,26.75
2019-01-24T15:09:21.566Z,22.90
2019-01-24T15:11:53.431Z,22.50
2019-01-24T15:14:24.842Z,22.98
2019-01-24T15:16:55.919Z,24.35
2019-01-24T15:19:27.109Z,23.87
2019-01-24T15:21:58.904Z,24.45
2019-01-24T15:24:29.679Z,25.95
2019-01-24T15:27:00.562Z,24.98
2019-01-24T15:29:31.346Z,23.67
2019-01-24T15:32:02.106Z,22.75
2019-01-24T15:34:32.948Z,23.25
2019-01-24T15:37:03.627Z,23.77
2019-01-24T15:39:34.464Z,26.02
2019-01-24T15:42:05.128Z,30.65
2019-01-24T15:44:37.158Z,40.88
2019-01-24T15:47:09.381Z,37.28
2019-01-24T15:49:40.348Z,42.65
2019-01-24T15:52:11.954Z,50.38
2019-01-24T15:54:43.038Z,34.48
2019-01-24T15:57:15.619Z,35.08
2019-01-24T15:59:47.299Z,29.45
2019-01-24T16:02:18.785Z,26.02
2019-01-24T16:04:50.153Z,25.50
2019-01-24T16:07:22.198Z,24.60
2019-01-24T16:09:52.948Z,27.50
2019-01-24T16:12:24.038Z,25.95
2019-01-24T16:14:54.865Z,21.25
2019-01-24T16:17:25.401Z,23.77
2019-01-24T16:19:56.362Z,24.82
2019-01-24T16:22:27.013Z,31.93
2019-01-24T16:24:58.351Z,30.23
2019-01-24T16:27:29.204Z,31.05
2019-01-24T16:30:00.443Z,32.28
2019-01-24T16:32:31.918Z,33.88
2019-01-24T16:35:02.690Z,26.68
2019-01-24T16:37:33.284Z,25.97
2019-01-24T16:40:04.372Z,24.60
2019-01-24T16:42:35.036Z,26.87
2019-01-24T16:45:08.677Z,26.70
2019-01-24T16:47:39.404Z,25.77
2019-01-24T16:50:13.305Z,24.82
2019-01-24T16:52:44.763Z,25.55
2019-01-24T16:55:18.974Z,26.85
2019-01-24T16:57:52.574Z,26.27
2019-01-24T17:00:26.318Z,25.95
2019-01-24T17:02:57.384Z,26.15
2019-01-24T17:05:29.939Z,25.90
2019-01-24T17:08:02.758Z,25.77
2019-01-24T17:10:34.768Z,24.30
2019-01-24T17:13:07.454Z,26.07
2019-01-24T17:15:38.685Z,27.77
2019-01-24T17:18:10.121Z,26.73
2019-01-24T17:20:40.808Z,27.13
2019-01-24T17:23:11.520Z,28.62
2019-01-24T17:25:42.841Z,30.97
2019-01-24T17:28:13.805Z,28.45
2019-01-24T17:30:44.353Z,30.48
2019-01-24T17:33:15.115Z,28.90
2019-01-24T17:35:45.511Z,27.82
2019-01-24T17:38:15.901Z,26.85
2019-01-24T17:40:46.783Z,27.70
2019-01-24T17:43:17.453Z,24.43
2019-01-24T17:45:47.808Z,25.20
2019-01-24T17:48:18.338Z,27.27
2019-01-24T17:50:49.133Z,26.73
2019-01-24T17:53:19.760Z,27.87
2019-01-24T17:55:51.868Z,30.65
2019-01-24T17:58:23.025Z,28.62
2019-01-24T18:00:54.273Z,30.57
2019-01-24T18:03:25.275Z,32.67
2019-01-24T18:05:55.997Z,31.97
2019-01-24T18:08:31.209Z,30.45
2019-01-24T18:10:59.060Z,30.65
2019-01-24T18:13:30.011Z,31.50
2019-01-24T18:16:00.933Z,32.00
2019-01-24T18:18:32.247Z,29.42
2019-01-24T18:21:03.319Z,28.15
2019-01-24T18:23:34.588Z,27.70
2019-01-24T18:26:07.694Z,26.17
2019-01-24T18:28:38.908Z,24.95
2019-01-24T18:31:10.202Z,27.85
2019-01-24T18:33:42.241Z,27.65
2019-01-24T18:36:13.158Z,28.57
2019-01-24T18:38:44.335Z,26.55
2019-01-24T18:41:16.139Z,27.40
2019-01-24T18:43:47.110Z,27.58
2019-01-24T18:46:18.860Z,25.60
2019-01-24T18:48:50.057Z,28.27
2019-01-24T18:51:21.405Z,27.67
2019-01-24T18:53:54.869Z,28.27
2019-01-24T18:56:25.761Z,28.27
2019-01-24T18:58:57.000Z,27.98
2019-01-24T19:01:27.919Z,25.80
2019-01-24T19:03:58.864Z,25.88
2019-01-24T19:06:29.559Z,25.80
2019-01-24T19:09:00.330Z,25.88
2019-01-24T19:11:31.117Z,26.80
2019-01-24T19:14:02.051Z,24.12
2019-01-24T19:16:33.095Z,25.72
2019-01-24T19:19:03.957Z,26.55
2019-01-24T19:21:35.599Z,24.40
2019-01-24T19:24:06.681Z,25.65
2019-01-24T19:26:38.967Z,26.07
2019-01-24T19:29:11.730Z,26.48
2019-01-24T19:31:42.629Z,25.65
2019-01-24T19:34:13.172Z,26.75
2019-01-24T19:36:43.971Z,27.55
2019-01-24T19:39:14.872Z,25.48
2019-01-24T19:41:46.749Z,27.20
2019-01-24T19:44:17.694Z,26.07
2019-01-24T19:46:48.817Z,26.33
2019-01-24T19:49:19.839Z,24.50
2019-01-24T19:51:50.911Z,24.82
2019-01-24T19:54:22.690Z,24.20
2019-01-24T19:56:54.571Z,26.25
2019-01-24T19:59:26.570Z,26.27
2019-01-24T20:01:57.424Z,25.97
2019-01-24T20:04:28.338Z,25.90
2019-01-24T20:07:01.540Z,25.27
2019-01-24T20:09:33.470Z,25.88
2019-01-24T20:12:04.853Z,24.98
2019-01-24T20:14:35.934Z,26.02
2019-01-24T20:17:06.514Z,23.60
2019-01-24T20:19:37.115Z,25.95
2019-01-24T20:22:08.240Z,26.30
2019-01-24T20:24:39.043Z,25.15
2019-01-24T20:27:10.195Z,26.27
2019-01-24T20:29:42.058Z,26.52
2019-01-24T20:32:13.466Z,24.87
2019-01-24T20:34:44.495Z,26.65
2019-01-24T20:37:15.583Z,27.17
2019-01-24T20:39:47.085Z,25.08
2019-01-24T20:42:19.877Z,25.57
2019-01-24T20:44:52.082Z,26.35
2019-01-24T20:47:24.596Z,30.37
2019-01-24T20:49:56.517Z,30.32
2019-01-24T20:52:28.756Z,29.95
2019-01-24T20:55:02.620Z,26.73
2019-01-24T20:57:34.709Z,24.87
2019-01-24T21:00:17.345Z,24.80
2019-01-24T21:02:49.044Z,25.62
2019-01-24T21:05:21.768Z,26.00
2019-01-24T21:07:52.977Z,26.97
2019-01-24T21:10:27.195Z,26.30
2019-01-24T21:13:00.334Z,26.97
2019-01-24T21:15:32.521Z,19.42
2019-01-24T21:18:04.640Z,23.75
2019-01-24T21:20:36.298Z,25.55
2019-01-24T21:23:10.660Z,25.80
2019-01-24T21:25:42.543Z,25.62
2019-01-24T21:28:14.363Z,27.07
2019-01-24T21:30:45.773Z,24.75
2019-01-24T21:33:17.604Z,27.75
2019-01-24T21:35:48.936Z,26.35
2019-01-24T21:38:20.485Z,25.48
2019-01-24T21:40:52.710Z,25.08
2019-01-24T21:43:28.145Z,24.27
2019-01-24T21:46:04.101Z,25.10
2019-01-24T21:48:36.584Z,25.37
2019-01-24T21:51:13.977Z,24.30
2019-01-24T21:53:46.879Z,24.90
2019-01-24T21:56:19.447Z,23.65
2019-01-24T21:58:50.338Z,24.32
2019-01-24T22:01:21.426Z,25.15
2019-01-24T22:03:52.294Z,23.73
2019-01-24T22:06:23.476Z,24.57
2019-01-24T22:08:54.072Z,24.00
2019-01-24T22:11:25.063Z,25.27
2019-01-24T22:13:56.715Z,23.52
2019-01-24T22:16:27.221Z,23.47
2019-01-24T22:18:58.873Z,23.15
2019-01-24T22:21:29.446Z,24.55
2019-01-24T22:24:01.295Z,24.75
2019-01-24T22:26:31.697Z,23.05
2019-01-24T22:29:02.142Z,22.65
2019-01-24T22:31:32.336Z,25.27
2019-01-24T22:34:02.842Z,25.08
2019-01-24T22:36:33.327Z,24.35
2019-01-24T22:39:04.861Z,23.50
2019-01-24T22:41:35.124Z,25.88
2019-01-24T22:44:05.535Z,26.00
2019-01-24T22:46:35.716Z,25.52
2019-01-24T22:49:06.160Z,24.40
2019-01-24T22:51:36.213Z,25.08
2019-01-24T22:54:06.446Z,25.75
2019-01-24T22:56:36.786Z,24.40
2019-01-24T22:59:07.319Z,25.45
2019-01-24T23:01:40.619Z,22.65
2019-01-24T23:04:11.239Z,24.25
2019-01-24T23:06:41.974Z,24.60
2019-01-24T23:09:12.624Z,24.15
2019-01-24T23:11:43.102Z,24.80
2019-01-24T23:14:13.564Z,23.42
2019-01-24T23:16:43.766Z,25.27
2019-01-24T23:19:14.287Z,23.70
2019-01-24T23:21:45.062Z,24.07
2019-01-24T23:24:15.534Z,22.87
2019-01-24T23:26:46.109Z,23.27
2019-01-24T23:29:16.533Z,24.27
2019-01-24T23:31:47.144Z,21.93
2019-01-24T23:34:17.592Z,23.02
2019-01-24T23:36:47.768Z,22.95
2019-01-24T23:39:18.205Z,22.37
2019-01-24T23:41:48.506Z,22.40
2019-01-24T23:44:20.060Z,23.92
2019-01-24T23:46:50.709Z,23.55
2019-01-24T23:49:21.346Z,21.45
2019-01-24T23:51:51.738Z,23.92
2019-01-24T23:54:22.158Z,23.42
2019-01-24T23:56:52.323Z,23.05
2019-01-24T23:59:22.637Z,24.80
